Time;durP1;ratioP1;P1;durP2;ratioP2;P2;SDS_P1;SDS_P2;PMS_P1;PMS_P2;Temp;Humidity;BMP_temperature;BMP_pressure;BME280_temperature;BME280_humidity;BME280_pressure;Samples;Min_cycle;Max_cycle;Signal;HPM_P1;HPM_P2
2022/04/23 00:00:14;;;;;;;6.43;2.22;;;;;;;19.01;53.80;97192.22;4977865;28;20027;-94
2022/04/23 00:02:46;;;;;;;5.97;2.28;;;;;;;19.01;53.59;97182.50;4978795;29;20031;-93
2022/04/23 00:05:24;;;;;;;5.38;1.98;;;;;;;19.00;53.58;97183.47;4962971;29;20012;-93
2022/04/23 00:07:53;;;;;;;4.55;2.42;;;;;;;18.98;53.68;97184.59;4964013;29;20023;-92
2022/04/23 00:10:23;;;;;;;4.55;2.08;;;;;;;18.98;53.71;97187.22;4994564;28;20031;-93
2022/04/23 00:12:54;;;;;;;3.35;2.08;;;;;;;18.97;53.91;97182.88;4978485;29;20019;-92
2022/04/23 00:15:27;;;;;;;4.95;1.90;;;;;;;18.97;53.77;97186.38;4946332;29;20018;-92
2022/04/23 00:17:57;;;;;;;5.18;2.03;;;;;;;18.96;53.96;97182.06;4978371;28;20099;-93
2022/04/23 00:20:30;;;;;;;6.57;2.17;;;;;;;18.94;53.91;97177.91;4979075;28;20024;-92
2022/04/23 00:23:06;;;;;;;5.22;2.10;;;;;;;18.95;53.63;97171.63;4978905;29;20026;-92
2022/04/23 00:25:37;;;;;;;5.65;1.95;;;;;;;18.96;53.57;97165.38;4961904;29;20126;-92
2022/04/23 00:28:14;;;;;;;3.35;1.77;;;;;;;18.94;53.50;97173.47;4978128;28;20035;-92
2022/04/23 00:30:52;;;;;;;5.60;2.28;;;;;;;18.90;53.49;97161.47;4979848;28;20047;-94
2022/04/23 00:44:12;;;;;;;4.18;2.03;;;;;;;18.87;53.78;97137.97;4983446;28;20058;-93
2022/04/23 00:46:43;;;;;;;4.85;1.77;;;;;;;18.87;53.59;97130.03;4953492;28;20019;-95
2022/04/23 00:59:22;;;;;;;5.75;1.88;;;;;;;18.84;53.74;97109.19;4942737;29;20023;-93
2022/04/23 01:01:53;;;;;;;4.03;1.95;;;;;;;18.84;53.36;97098.59;4927087;29;20016;-93
2022/04/23 01:04:20;;;;;;;4.25;1.63;;;;;;;18.84;53.23;97098.59;4914096;29;20029;-93
2022/04/23 01:06:53;;;;;;;3.63;1.67;;;;;;;18.84;53.43;97103.91;4910309;29;20036;-93
2022/04/23 01:09:20;;;;;;;4.05;1.95;;;;;;;18.84;53.51;97102.06;4927101;29;20044;-93
2022/04/23 01:12:03;;;;;;;4.18;1.70;;;;;;;18.81;53.62;97096.22;4942610;29;20040;-93
2022/04/23 01:18:16;;;;;;;6.28;2.10;;;;;;;18.79;53.63;97099.84;4942305;29;20050;-92
2022/04/23 01:20:48;;;;;;;5.35;1.92;;;;;;;18.79;53.40;97096.34;4941873;29;20044;-94
2022/04/23 01:23:18;;;;;;;5.38;2.17;;;;;;;18.78;53.37;97089.41;4926179;29;20103;-93
2022/04/23 01:25:54;;;;;;;4.00;2.03;;;;;;;18.78;53.64;97069.13;4940751;29;20104;-93
2022/04/23 01:28:35;;;;;;;6.15;2.33;;;;;;;18.79;53.46;97065.50;4926036;29;20028;-94
2022/04/23 01:31:04;;;;;;;3.40;1.63;;;;;;;18.77;53.23;97078.03;4912161;29;20055;-93
2022/04/23 01:33:33;;;;;;;4.80;2.03;;;;;;;18.76;53.51;97072.88;4909661;29;20051;-91
2022/04/23 01:36:09;;;;;;;2.50;1.35;;;;;;;18.75;53.30;97079.94;4925559;29;20087;-93
2022/04/23 01:38:41;;;;;;;4.05;1.80;;;;;;;18.74;53.45;97073.00;4939583;29;20056;-94
2022/04/23 01:41:07;;;;;;;4.38;1.83;;;;;;;18.72;53.55;97069.69;4915287;29;20028;-94
2022/04/23 01:43:57;;;;;;;5.30;1.98;;;;;;;18.73;53.55;97057.28;4980495;29;20019;-92
2022/04/23 01:49:55;;;;;;;5.88;1.95;;;;;;;18.69;53.28;97069.13;4981262;29;20066;-93
2022/04/23 01:52:29;;;;;;;5.38;1.73;;;;;;;18.67;53.52;97063.13;4976528;29;20031;-93
2022/04/23 01:54:55;;;;;;;6.07;2.13;;;;;;;18.66;53.39;97057.00;4979237;28;20057;-93
2022/04/23 02:24:33;;;;;;;6.55;1.88;;;;;;;18.57;53.43;97028.78;4941055;29;20051;-94
2022/04/23 02:27:35;;;;;;;4.88;1.90;;;;;;;18.57;53.75;97028.78;4924981;29;20064;-93
2022/04/23 02:33:53;;;;;;;4.47;1.63;;;;;;;18.59;53.48;97016.28;4937988;29;20114;-93
2022/04/23 02:36:30;;;;;;;5.90;1.70;;;;;;;18.57;53.48;97015.56;4925010;29;20051;-93
2022/04/23 02:39:01;;;;;;;3.70;1.55;;;;;;;18.58;53.37;97009.31;4938735;29;20100;-93
2022/04/23 02:41:36;;;;;;;3.88;1.75;;;;;;;18.57;53.09;97002.38;4940374;29;20078;-93
2022/04/23 02:44:04;;;;;;;5.68;2.05;;;;;;;18.53;53.60;97007.09;4925444;29;20050;-93
2022/04/23 02:46:32;;;;;;;5.72;2.00;;;;;;;18.51;53.28;97004.59;4938501;29;20041;-93
2022/04/23 02:49:03;;;;;;;5.65;1.80;;;;;;;18.49;53.41;97003.91;4908212;29;20013;-93
2022/04/23 02:51:46;;;;;;;4.07;1.52;;;;;;;18.51;53.13;97004.59;4925248;29;20032;-92
2022/04/23 02:54:22;;;;;;;4.68;1.77;;;;;;;18.48;53.46;97004.88;4942630;29;20063;-92
2022/04/23 02:56:55;;;;;;;6.57;1.88;;;;;;;18.46;53.52;96996.22;4960736;29;20032;-93
2022/04/23 03:12:38;;;;;;;5.53;2.20;;;;;;;18.45;53.36;96983.19;4941680;29;20051;-94
2022/04/23 03:18:14;;;;;;;5.97;1.95;;;;;;;18.43;53.31;96974.56;4941314;29;20055;-92
2022/04/23 03:20:58;;;;;;;5.63;1.70;;;;;;;18.38;53.33;96977.63;4925776;29;20022;-93
2022/04/23 03:23:37;;;;;;;4.03;1.90;;;;;;;18.38;53.50;96977.63;4937729;29;20032;-93
2022/04/23 03:26:22;;;;;;;6.25;2.00;;;;;;;18.39;53.44;96976.63;4938640;29;20064;-93
2022/04/23 03:28:47;;;;;;;4.97;1.98;;;;;;;18.37;53.55;96973.31;4923904;29;20060;-91
2022/04/23 03:31:18;;;;;;;4.47;1.60;;;;;;;18.34;53.23;96970.94;4939965;29;20031;-92
2022/04/23 03:33:53;;;;;;;5.03;1.63;;;;;;;18.33;53.37;96975.41;4953936;28;20047;-92
2022/04/23 03:39:28;;;;;;;5.00;1.80;;;;;;;18.34;53.40;96970.94;4979205;28;20030;-93
2022/04/23 03:48:47;;;;;;;3.42;1.85;;;;;;;18.30;53.40;96959.00;4958597;29;20093;-93
2022/04/23 04:01:48;;;;;;;3.85;1.67;;;;;;;18.25;53.19;96965.53;4920713;29;20051;-93
2022/04/23 04:04:15;;;;;;;4.75;1.70;;;;;;;18.22;53.49;96957.84;4905046;29;20025;-93
2022/04/23 04:06:42;;;;;;;5.97;1.90;;;;;;;18.22;53.43;96951.75;4905219;29;20059;-93
2022/04/23 04:12:32;;;;;;;3.80;1.65;;;;;;;18.22;53.22;96949.94;4920824;29;20078;-92
2022/04/23 04:15:17;;;;;;;6.10;1.77;;;;;;;18.23;53.32;96948.16;4916159;29;20492;-93
2022/04/23 04:20:39;;;;;;;3.30;1.70;;;;;;;18.19;53.34;96942.31;4943812;29;20047;-93
2022/04/23 04:23:09;;;;;;;4.07;1.88;;;;;;;18.21;53.71;96950.91;4927080;29;20112;-93
2022/04/23 04:29:38;;;;;;;5.75;1.58;;;;;;;18.19;53.40;96944.94;4906031;29;20069;-93
2022/04/23 04:32:12;;;;;;;3.90;1.45;;;;;;;18.20;53.56;96948.41;4905413;29;20033;-92
2022/04/23 04:34:38;;;;;;;4.85;1.70;;;;;;;18.18;53.48;96935.38;4905036;29;20048;-93
2022/04/23 04:37:14;;;;;;;3.70;1.75;;;;;;;18.18;53.28;96939.81;4904966;29;20060;-92
2022/04/23 04:39:56;;;;;;;4.07;1.63;;;;;;;18.15;53.52;96930.34;4890576;29;20094;-92
2022/04/23 04:45:45;;;;;;;4.82;1.50;;;;;;;18.12;53.53;96935.91;4943426;29;20055;-92
2022/04/23 04:48:31;;;;;;;3.88;1.90;;;;;;;18.12;53.54;96941.19;4927044;29;20151;-94
2022/04/23 04:50:59;;;;;;;3.97;2.00;;;;;;;18.10;53.77;96937.84;4927248;29;20028;-93
2022/04/23 04:56:56;;;;;;;3.67;1.77;;;;;;;18.10;53.56;96911.44;4943728;29;20034;-93
2022/04/23 04:59:27;;;;;;;3.83;1.33;;;;;;;18.11;53.40;96918.38;4927363;29;20033;-93
2022/04/23 05:05:17;;;;;;;4.00;1.63;;;;;;;18.09;53.48;96912.44;4941997;29;20448;-94
2022/04/23 05:08:05;;;;;;;3.28;1.52;;;;;;;18.13;53.45;96905.06;4942441;29;20087;-94
2022/04/23 05:10:44;;;;;;;3.42;1.27;;;;;;;18.09;53.44;96915.06;4940908;29;20040;-94
2022/04/23 05:13:40;;;;;;;3.13;1.55;;;;;;;18.12;53.54;96938.56;4911114;29;20059;-93
2022/04/23 05:16:15;;;;;;;3.50;1.23;;;;;;;18.09;53.76;96926.47;4941155;29;20055;-94
2022/04/23 05:19:00;;;;;;;3.27;1.27;;;;;;;18.10;53.74;96907.03;4925934;29;20051;-92
2022/04/23 05:21:32;;;;;;;3.47;1.13;;;;;;;18.10;53.68;96906.16;4942103;29;20044;-94
2022/04/23 05:24:24;;;;;;;3.75;1.55;;;;;;;18.08;53.45;96905.50;4943222;29;20012;-92
2022/04/23 05:33:27;;;;;;;5.03;1.65;;;;;;;18.08;53.79;96861.47;4891091;29;20058;-94
2022/04/23 05:35:55;;;;;;;4.30;1.60;;;;;;;18.08;53.77;96850.91;4962945;28;20020;-94
2022/04/23 05:38:48;;;;;;;3.30;1.33;;;;;;;18.07;53.85;96872.97;4980145;28;20090;-93
2022/04/23 05:41:57;;;;;;;4.38;1.50;;;;;;;18.09;53.52;96899.22;4978927;28;20026;-94
2022/04/23 05:44:27;;;;;;;3.03;1.38;;;;;;;18.07;53.52;96907.28;4966202;28;20019;-94
2022/04/23 05:46:59;;;;;;;2.72;1.50;;;;;;;18.11;53.44;96921.03;4982165;28;20059;-94
2022/04/23 05:49:30;;;;;;;3.17;1.30;;;;;;;18.09;53.43;96912.44;4979882;28;20121;-93
2022/04/23 05:52:21;;;;;;;3.70;1.30;;;;;;;18.09;53.80;96901.88;4970637;29;20095;-93
2022/04/23 05:58:36;;;;;;;2.95;1.40;;;;;;;18.08;53.73;96913.41;4980851;28;20082;-93
2022/04/23 06:04:32;;;;;;;1.83;1.10;;;;;;;18.09;53.99;96920.34;4981165;29;20069;-93
2022/04/23 06:09:48;;;;;;;2.22;1.10;;;;;;;18.08;53.78;96934.50;4981066;28;20027;-93
2022/04/23 06:12:23;;;;;;;3.08;1.30;;;;;;;18.10;53.62;96937.84;4980112;29;20023;-93
2022/04/23 06:14:56;;;;;;;4.00;1.65;;;;;;;18.09;53.90;96926.47;4979889;28;20039;-94
2022/04/23 06:17:27;;;;;;;2.90;1.30;;;;;;;18.11;53.95;96928.94;4968942;29;20039;-93
2022/04/23 06:20:13;;;;;;;2.85;1.10;;;;;;;18.11;53.55;96932.44;4980087;29;20009;-92
2022/04/23 06:22:59;;;;;;;2.70;1.30;;;;;;;18.13;53.60;96910.34;4979733;29;20038;-94
2022/04/23 06:25:31;;;;;;;3.75;1.55;;;;;;;18.10;54.00;96911.44;4966613;29;20044;-92
2022/04/23 06:31:40;;;;;;;3.47;1.25;;;;;;;18.10;53.77;96906.16;4979289;28;20034;-92
2022/04/23 06:34:09;;;;;;;3.58;1.48;;;;;;;18.10;54.13;96911.44;4961116;29;20097;-94
2022/04/23 06:36:38;;;;;;;2.97;1.80;;;;;;;18.09;53.75;96915.06;4962667;28;20106;-93
2022/04/23 06:39:12;;;;;;;3.50;1.50;;;;;;;18.09;53.64;96920.34;4978029;28;20119;-94
2022/04/23 06:41:39;;;;;;;3.03;1.35;;;;;;;18.12;53.74;96933.28;4962481;29;20086;-93
2022/04/23 06:44:07;;;;;;;3.45;1.50;;;;;;;18.12;53.94;96949.13;4962532;29;20019;-92
2022/04/23 06:46:40;;;;;;;2.67;1.40;;;;;;;18.14;53.59;96949.81;4978667;29;20039;-94
2022/04/23 06:49:18;;;;;;;3.17;1.65;;;;;;;18.12;53.94;96941.19;4963360;29;20031;-94
2022/04/23 06:51:46;;;;;;;2.60;1.38;;;;;;;18.12;53.73;96954.38;4947277;29;20035;-93
2022/04/23 06:54:24;;;;;;;3.33;1.50;;;;;;;18.11;53.70;96950.06;4979098;29;20036;-93
2022/04/23 06:56:52;;;;;;;3.85;1.77;;;;;;;18.13;53.54;96942.84;4961404;29;20082;-94
2022/04/23 06:59:28;;;;;;;2.63;1.67;;;;;;;18.12;53.95;96946.47;4962487;29;20106;-93
2022/04/23 07:02:09;;;;;;;2.17;1.33;;;;;;;18.11;53.72;96942.13;4961708;29;20035;-92
2022/04/23 07:04:41;;;;;;;2.30;1.35;;;;;;;18.11;53.90;96939.50;4962574;29;20039;-92
2022/04/23 07:07:10;;;;;;;2.67;1.30;;;;;;;18.11;53.61;96939.50;4977094;29;20019;-93
2022/04/23 07:16:33;;;;;;;1.95;1.23;;;;;;;18.08;53.76;96918.69;4940564;29;20051;-93
2022/04/23 07:19:14;;;;;;;2.92;1.30;;;;;;;18.10;54.00;96924.66;4923887;29;20020;-93
2022/04/23 07:21:57;;;;;;;2.38;1.27;;;;;;;18.09;53.93;96937.03;4909451;29;20040;-93
2022/04/23 07:24:32;;;;;;;2.75;1.30;;;;;;;18.06;53.96;96931.19;4913735;29;20039;-92
2022/04/23 07:27:11;;;;;;;3.70;1.35;;;;;;;18.07;54.11;96935.50;4923455;29;20044;-91
2022/04/23 07:29:46;;;;;;;3.13;1.50;;;;;;;18.07;54.15;96932.84;4924729;29;20028;-94
2022/04/23 07:32:16;;;;;;;3.17;1.50;;;;;;;18.09;53.83;96930.91;4922186;29;20048;-93
2022/04/23 07:38:20;;;;;;;2.67;1.33;;;;;;;18.10;54.02;96912.28;4940222;29;20047;-93
2022/04/23 07:47:39;;;;;;;2.63;1.52;;;;;;;18.12;53.96;96917.44;4979998;28;20058;-94
2022/04/23 07:50:25;;;;;;;;;;;;;;;18.10;53.91;96930.78;4980263;28;20042;-93
2022/04/23 07:52:53;;;;;;;3.55;1.50;;;;;;;18.11;54.12;96928.94;4977798;29;19942;-94
2022/04/23 07:55:19;;;;;;;3.90;1.40;;;;;;;18.09;54.01;96925.63;4977952;29;20023;-93
2022/04/23 07:57:47;;;;;;;3.65;1.33;;;;;;;18.10;53.71;96927.28;4974573;29;20046;-92
2022/04/23 08:00:29;;;;;;;3.17;1.50;;;;;;;18.11;54.02;96927.16;4979234;28;20094;-93
2022/04/23 08:03:12;;;;;;;2.30;1.30;;;;;;;18.12;53.75;96920.09;4979293;28;20026;-93
2022/04/23 08:09:39;;;;;;;2.97;1.30;;;;;;;18.14;53.94;96944.53;4980093;28;20030;-93
2022/04/23 08:12:35;;;;;;;3.83;1.75;;;;;;;18.15;53.81;96961.19;4979466;28;20047;-92
2022/04/23 08:34:40;;;;;;;2.58;1.48;;;;;;;18.18;53.80;96998.72;4958492;29;20051;-92
2022/04/23 08:45:10;;;;;;;3.42;1.38;;;;;;;18.21;53.87;97022.19;4954492;29;20073;-93
2022/04/23 08:47:53;;;;;;;2.90;1.42;;;;;;;18.20;53.75;97017.88;4923572;29;20557;-93
2022/04/23 08:50:23;;;;;;;3.30;1.55;;;;;;;18.21;53.85;97011.63;4923678;29;20099;-94
2022/04/23 08:53:21;;;;;;;4.80;1.83;;;;;;;18.22;53.96;97010.66;4938499;29;20028;-94
2022/04/23 08:59:15;;;;;;;4.20;1.70;;;;;;;18.23;53.84;97003.56;4920678;29;20034;-93
2022/04/23 09:01:46;;;;;;;4.63;1.90;;;;;;;18.22;53.96;97021.22;4904793;29;20055;-93
2022/04/23 09:04:16;;;;;;;3.58;1.58;;;;;;;18.24;53.60;97035.13;4927958;29;20040;-93
2022/04/23 09:06:53;;;;;;;3.45;1.40;;;;;;;18.25;53.78;97049.13;4941825;29;20043;-93
2022/04/23 09:09:31;;;;;;;3.90;1.75;;;;;;;18.24;53.71;97056.25;4974695;29;20068;-91
2022/04/23 09:12:17;;;;;;;2.85;1.30;;;;;;;18.25;53.58;97051.78;4958353;29;20024;-94
2022/04/23 09:14:50;;;;;;;3.35;1.58;;;;;;;18.27;53.64;97054.28;4961506;29;20115;-94
2022/04/23 09:30:59;;;;;;;2.42;1.30;;;;;;;18.25;53.83;97020.94;4942534;29;20103;-94
2022/04/23 09:33:54;;;;;;;3.50;1.85;;;;;;;18.28;53.71;97024.28;4924159;29;20028;-94
2022/04/23 09:40:07;;;;;;;3.17;1.70;;;;;;;18.30;53.42;97043.47;4923324;29;20069;-93
2022/04/23 09:43:16;;;;;;;2.05;1.35;;;;;;;18.30;53.69;97049.56;4922512;29;20041;-93
2022/04/23 09:56:58;;;;;;;2.80;1.65;;;;;;;18.40;53.36;97107.69;4981058;28;20058;-93
2022/04/23 10:03:08;;;;;;;4.05;1.33;;;;;;;18.33;53.44;97138.22;4961846;28;20076;-93
2022/04/23 10:05:54;;;;;;;2.78;1.38;;;;;;;18.40;53.56;97133.25;4953418;28;20137;-94
2022/04/23 10:08:42;;;;;;;2.15;1.02;;;;;;;18.36;53.30;97132.69;4961951;29;20027;-94
2022/04/23 10:11:37;;;;;;;2.15;1.10;;;;;;;18.32;53.38;97142.69;4945674;29;20026;-94
2022/04/23 10:31:12;;;;;;;2.30;1.30;;;;;;;18.27;53.72;97260.19;4942592;29;20031;-93
2022/04/23 10:34:28;;;;;;;4.00;1.33;;;;;;;18.29;53.35;97247.69;4941817;29;20059;-93
2022/04/23 10:37:21;;;;;;;4.25;1.30;;;;;;;18.29;53.55;97250.34;4906289;29;20031;-93
2022/04/23 10:40:12;;;;;;;3.03;1.52;;;;;;;18.30;53.35;97252.03;4926971;29;20099;-93
2022/04/23 10:43:19;;;;;;;3.03;1.40;;;;;;;18.29;53.65;97237.13;4941256;29;20032;-95
2022/04/23 10:49:25;;;;;;;3.97;1.40;;;;;;;18.28;53.23;97240.75;4961756;29;20082;-93
2022/04/23 10:52:42;;;;;;;3.38;1.50;;;;;;;18.27;53.32;97249.63;4997599;28;20030;-93
2022/04/23 11:14:51;;;;;;;2.65;1.15;;;;;;;18.18;53.10;97241.53;4959636;29;20132;-94
2022/04/23 11:17:56;;;;;;;2.05;1.15;;;;;;;18.16;53.15;97232.91;4943110;29;20039;-93
2022/04/23 11:20:54;;;;;;;2.53;1.33;;;;;;;18.15;53.39;97220.69;4959738;29;20091;-93
2022/04/23 11:23:25;;;;;;;2.95;1.35;;;;;;;18.16;53.36;97206.50;4942891;29;20028;-92
2022/04/23 11:25:57;;;;;;;2.08;1.00;;;;;;;18.14;53.30;97219.00;4927240;29;20031;-93
2022/04/23 11:28:24;;;;;;;3.30;1.20;;;;;;;18.11;53.46;97206.91;4951853;28;20062;-93
2022/04/23 11:30:57;;;;;;;3.35;1.30;;;;;;;18.09;53.44;97210.63;4998760;28;20006;-92
2022/04/23 11:33:25;;;;;;;3.45;1.30;;;;;;;18.11;53.28;97206.91;4950229;28;20053;-93
2022/04/23 11:36:06;;;;;;;2.88;1.25;;;;;;;18.08;53.24;97204.53;4982283;28;20046;-93
2022/04/23 11:38:58;;;;;;;2.72;1.20;;;;;;;18.09;53.30;97223.84;4998276;28;20073;-94
2022/04/23 11:41:38;;;;;;;2.17;1.20;;;;;;;18.09;53.12;97205.38;4981809;28;20111;-93
2022/04/23 11:44:46;;;;;;;2.75;0.93;;;;;;;18.09;53.46;97211.50;4990022;28;20030;-92
2022/04/23 11:47:54;;;;;;;2.20;0.90;;;;;;;18.06;53.26;97226.75;4969195;28;20035;-94
2022/04/23 11:54:35;;;;;;;2.13;0.88;;;;;;;18.06;53.26;97224.13;4997858;28;20078;-93
2022/04/23 11:57:09;;;;;;;2.15;1.13;;;;;;;18.06;53.12;97216.19;4994118;28;20046;-91
2022/04/23 12:02:45;;;;;;;3.03;1.10;;;;;;;18.01;53.15;97223.63;4939304;29;20062;-94
2022/04/23 12:09:11;;;;;;;2.60;1.05;;;;;;;18.01;53.48;97242.09;4939829;29;20039;-94
2022/04/23 12:11:47;;;;;;;2.13;1.08;;;;;;;18.00;53.37;97233.34;4938869;29;20035;-94
2022/04/23 12:14:19;;;;;;;2.28;1.10;;;;;;;17.98;53.57;97228.19;4923682;29;20036;-92
2022/04/23 12:20:47;;;;;;;1.60;0.80;;;;;;;17.95;53.49;97220.53;4939640;29;20118;-93
2022/04/23 12:23:16;;;;;;;2.42;1.13;;;;;;;17.94;53.33;97229.41;4938805;29;20040;-92
2022/04/23 12:43:28;;;;;;;1.67;1.10;;;;;;;17.91;53.61;97261.31;4944368;29;20307;-93
2022/04/23 12:49:18;;;;;;;2.63;1.08;;;;;;;17.90;53.75;97249.09;5002682;28;20054;-93
2022/04/23 12:56:19;;;;;;;2.47;1.05;;;;;;;17.88;53.70;97227.28;4994728;28;20069;-93
2022/04/23 13:02:17;;;;;;;1.52;0.85;;;;;;;17.86;53.68;97221.28;5002713;28;20043;-92
2022/04/23 13:05:09;;;;;;;1.85;0.77;;;;;;;17.85;53.67;97232.81;5002226;28;20015;-93
2022/04/23 13:10:51;;;;;;;1.98;0.68;;;;;;;17.85;53.68;97224.91;5002420;28;20030;-92
2022/04/23 13:13:19;;;;;;;1.70;0.80;;;;;;;17.84;53.66;97233.78;5000108;28;20078;-92
2022/04/23 13:15:45;;;;;;;0.90;0.60;;;;;;;17.83;53.27;97243.50;4968001;28;20011;-91
2022/04/23 13:18:11;;;;;;;2.10;0.90;;;;;;;17.84;53.47;97249.63;4985888;28;20034;-92
2022/04/23 13:21:18;;;;;;;1.55;0.80;;;;;;;17.84;53.65;97273.34;4984107;28;20042;-93
2022/04/23 13:27:18;;;;;;;0.93;0.60;;;;;;;17.85;53.34;97288.22;5001583;28;20037;-93
2022/04/23 13:29:48;;;;;;;2.15;0.93;;;;;;;17.83;53.45;97290.16;4984645;28;20042;-93
2022/04/23 13:32:17;;;;;;;1.63;0.80;;;;;;;17.82;53.51;97293.75;4983900;28;20027;-93
2022/04/23 13:34:49;;;;;;;0.93;0.50;;;;;;;17.81;53.63;97297.34;4984135;28;20039;-94
2022/04/23 13:40:39;;;;;;;0.98;0.57;;;;;;;17.80;53.49;97295.66;5001164;28;20057;-93
2022/04/23 13:50:00;;;;;;;1.98;0.75;;;;;;;17.79;53.77;97299.28;5001321;28;20037;-92
2022/04/23 13:55:27;;;;;;;0.95;0.63;;;;;;;17.77;53.66;97299.41;5001009;28;20119;-92
2022/04/23 13:58:11;;;;;;;;;;;;;;;17.80;53.45;97300.94;4983426;28;20027;-90
2022/04/23 14:00:39;;;;;;;1.15;0.70;;;;;;;17.81;53.46;97302.63;4984223;28;19909;-93
2022/04/23 14:11:42;;;;;;;1.10;0.75;;;;;;;17.79;53.66;97299.28;5000136;28;20037;-91
2022/04/23 14:15:04;;;;;;;0.98;0.60;;;;;;;17.78;53.79;97292.34;4999409;28;20031;-92
2022/04/23 14:17:37;;;;;;;1.85;0.90;;;;;;;17.78;53.54;97292.34;4982499;28;20034;-91
2022/04/23 14:20:05;;;;;;;2.55;0.70;;;;;;;17.80;53.64;97295.66;4981762;28;20042;-92
2022/04/23 14:29:21;;;;;;;1.15;0.50;;;;;;;17.80;53.63;97298.31;4961410;29;20083;-91
2022/04/23 14:31:52;;;;;;;1.30;0.80;;;;;;;17.79;54.03;97301.91;4961587;29;20024;-91
2022/04/23 14:34:28;;;;;;;1.83;0.60;;;;;;;17.78;53.79;97308.16;4944862;29;20052;-92
2022/04/23 14:37:17;;;;;;;;;;;;;;;17.80;53.87;97308.84;4944551;29;20028;-92
2022/04/23 14:43:14;;;;;;;1.23;0.57;;;;;;;17.83;53.88;97311.25;4961217;29;20056;-92
2022/04/23 14:45:46;;;;;;;1.45;0.65;;;;;;;17.81;53.83;97314.00;4945518;29;20032;-93
2022/04/23 14:48:13;;;;;;;0.80;0.50;;;;;;;17.80;53.62;97316.78;4944869;29;20035;-92
2022/04/23 14:53:34;;;;;;;0.95;0.50;;;;;;;17.82;53.83;97330.69;4960381;29;20065;-93
2022/04/23 14:56:28;;;;;;;1.92;0.80;;;;;;;17.81;54.02;97339.56;4955004;28;20047;-94
2022/04/23 14:59:08;;;;;;;1.45;0.80;;;;;;;17.83;53.86;97340.28;4979594;28;20047;-94
2022/04/23 15:01:39;;;;;;;1.23;0.77;;;;;;;17.82;53.57;97328.88;4979275;28;20035;-93
2022/04/23 15:10:15;;;;;;;1.23;0.65;;;;;;;17.81;53.86;97329.84;4980730;28;20108;-93
2022/04/23 15:12:41;;;;;;;2.13;1.05;;;;;;;17.80;54.13;97333.44;4980014;28;20051;-91
2022/04/23 15:15:31;;;;;;;3.58;1.85;;;;;;;17.81;53.77;97339.56;4978978;28;20031;-94
2022/04/23 15:18:01;;;;;;;3.03;1.45;;;;;;;17.79;53.81;97337.06;4972978;29;20103;-93
2022/04/23 15:20:37;;;;;;;2.58;1.17;;;;;;;17.79;54.00;97347.63;4980343;28;20023;-92
2022/04/23 15:23:04;;;;;;;2.92;1.38;;;;;;;17.80;54.11;97348.44;4979419;28;20026;-93
2022/04/23 15:25:34;;;;;;;3.05;1.40;;;;;;;17.80;53.92;97348.44;4979834;28;20039;-93
2022/04/23 15:28:08;;;;;;;2.03;1.17;;;;;;;17.80;53.90;97358.97;4979945;28;20031;-94
2022/04/23 15:30:34;;;;;;;2.53;1.20;;;;;;;17.78;53.86;97351.19;4980358;28;20016;-94
2022/04/23 15:33:06;;;;;;;2.15;1.00;;;;;;;17.82;53.63;97367.63;4975825;28;20030;-93
2022/04/23 15:36:03;;;;;;;5.57;1.08;;;;;;;17.78;53.60;97360.91;4963333;28;20045;-94
2022/04/23 15:38:36;;;;;;;1.95;1.15;;;;;;;17.77;53.89;97362.72;4980830;28;20034;-95
2022/04/23 15:41:04;;;;;;;1.90;1.00;;;;;;;17.76;54.09;97357.53;4977678;28;20031;-95
2022/04/23 15:44:24;;;;;;;2.67;1.15;;;;;;;17.80;53.92;97364.25;4979830;28;20019;-94
2022/04/23 15:47:06;;;;;;;2.17;1.20;;;;;;;17.78;54.04;97360.91;4980304;28;20019;-94
2022/04/23 15:49:41;;;;;;;1.65;1.00;;;;;;;17.77;53.64;97353.97;4978656;28;20107;-92
2022/04/23 15:55:55;;;;;;;1.77;1.00;;;;;;;17.77;53.97;97348.69;4978715;28;20049;-93
2022/04/23 16:05:08;;;;;;;2.80;1.58;;;;;;;17.77;54.09;97336.31;4940386;29;20111;-94
2022/04/23 16:07:38;;;;;;;3.42;2.00;;;;;;;17.76;53.90;97336.44;4923501;29;20040;-93
2022/04/23 16:10:11;;;;;;;3.22;1.85;;;;;;;17.75;54.27;97330.34;4923318;29;20024;-93
2022/04/23 16:13:08;;;;;;;3.75;1.80;;;;;;;17.74;54.13;97328.69;4937567;29;20040;-93
2022/04/23 16:19:22;;;;;;;2.90;1.60;;;;;;;17.75;54.17;97338.25;4943102;29;20042;-93
2022/04/23 16:21:57;;;;;;;3.42;2.05;;;;;;;17.73;54.03;97344.63;4926190;29;20036;-92
2022/04/23 16:24:57;;;;;;;4.40;2.10;;;;;;;17.74;54.03;97343.66;4927953;29;20032;-92
2022/04/23 16:27:25;;;;;;;3.97;1.83;;;;;;;17.71;54.16;97342.94;4927770;29;20094;-93
2022/04/23 16:33:01;;;;;;;2.53;1.48;;;;;;;17.71;54.07;97350.88;4994128;28;20042;-93
2022/04/23 16:35:26;;;;;;;3.20;1.63;;;;;;;17.73;54.05;97357.81;4984827;28;20049;-94
2022/04/23 16:56:43;;;;;;;1.73;1.10;;;;;;;17.71;53.95;97355.28;4941708;29;20047;-93
2022/04/23 16:59:18;;;;;;;2.53;1.33;;;;;;;17.70;53.85;97357.09;4925195;29;20045;-92
2022/04/23 17:01:47;;;;;;;2.35;1.20;;;;;;;17.71;53.89;97364.06;4927329;29;20024;-92
2022/04/23 17:04:46;;;;;;;3.42;1.48;;;;;;;17.70;53.69;97370.28;4927166;29;20056;-92
2022/04/23 17:13:50;;;;;;;2.38;1.17;;;;;;;17.73;53.82;97373.63;4904915;29;20069;-92
2022/04/23 17:16:18;;;;;;;3.33;1.45;;;;;;;17.74;53.91;97370.03;4895536;29;20033;-93
2022/04/23 17:19:10;;;;;;;2.95;1.45;;;;;;;17.73;53.80;97363.94;4905004;29;20033;-93
2022/04/23 17:25:17;;;;;;;2.22;1.27;;;;;;;17.73;53.75;97374.50;4905335;29;20076;-92
2022/04/23 17:28:08;;;;;;;2.47;1.35;;;;;;;17.72;53.83;97372.78;4892142;29;20044;-92
2022/04/23 17:30:35;;;;;;;2.33;1.23;;;;;;;17.75;53.72;97376.97;4911470;29;20047;-91
2022/04/23 17:33:29;;;;;;;2.50;1.33;;;;;;;17.74;53.82;97375.31;4941579;29;20040;-92
2022/04/23 17:36:00;;;;;;;2.17;1.30;;;;;;;17.75;53.54;97376.97;4923971;29;20040;-94
2022/04/23 17:38:58;;;;;;;2.78;1.35;;;;;;;17.74;53.59;97375.31;4925696;29;20019;-94
2022/04/23 17:41:33;;;;;;;2.47;1.30;;;;;;;17.71;53.79;97377.25;4926325;29;20048;-93
2022/04/23 17:44:49;;;;;;;1.92;1.15;;;;;;;17.71;53.75;97385.16;4903806;29;20056;-94
2022/04/23 17:50:43;;;;;;;3.35;1.50;;;;;;;17.71;53.55;97398.34;4938421;29;20036;-93
2022/04/23 17:56:50;;;;;;;3.42;1.30;;;;;;;17.70;53.54;97401.09;4943098;29;20039;-92
2022/04/23 17:59:35;;;;;;;2.42;1.20;;;;;;;17.71;53.53;97408.03;4911038;29;20035;-92
2022/04/23 18:07:37;;;;;;;2.65;1.27;;;;;;;17.70;53.44;97416.94;4943082;29;20092;-90
2022/04/23 18:10:49;;;;;;;2.63;1.30;;;;;;;17.71;53.59;97429.16;4933040;29;20040;-91
2022/04/23 18:12:58;;;;;;;2.72;1.52;;;;;;;17.71;53.62;97435.28;4942812;29;20008;-92
2022/04/23 18:15:46;;;;;;;3.72;1.60;;;;;;;17.69;53.42;97437.16;4985701;28;20051;-91
2022/04/23 18:18:26;;;;;;;1.92;1.27;;;;;;;17.69;53.41;97442.44;4981654;28;20023;-93
2022/04/23 18:21:00;;;;;;;1.77;0.90;;;;;;;17.71;53.42;97445.81;5000088;28;20034;-91
2022/04/23 18:23:55;;;;;;;2.92;1.40;;;;;;;17.71;53.58;97451.09;4999269;28;20088;-95
2022/04/23 18:26:25;;;;;;;2.25;1.35;;;;;;;17.69;53.41;97453.00;5001431;28;20015;-94
2022/04/23 18:29:01;;;;;;;2.60;1.30;;;;;;;17.68;53.38;97456.59;4985454;28;20034;-92
2022/04/23 18:31:31;;;;;;;2.80;1.48;;;;;;;17.69;53.58;97457.44;4984888;28;20046;-93
2022/04/23 18:41:00;;;;;;;2.55;1.27;;;;;;;17.66;53.72;97463.81;4941480;28;20138;-93
2022/04/23 18:43:37;;;;;;;2.15;1.20;;;;;;;17.67;53.38;97478.66;4941554;29;20027;-91
2022/04/23 18:46:27;;;;;;;3.33;1.60;;;;;;;17.67;53.37;97477.84;4925511;29;20016;-91
2022/04/23 18:48:56;;;;;;;3.05;1.30;;;;;;;17.64;53.52;97476.28;4940085;29;20027;-91
2022/04/23 18:51:54;;;;;;;2.22;1.20;;;;;;;17.62;53.57;97480.81;4925507;29;20055;-93
2022/04/23 18:54:45;;;;;;;3.38;1.38;;;;;;;17.63;53.31;97485.13;4963856;28;20026;-91
2022/04/23 18:57:55;;;;;;;2.28;1.10;;;;;;;17.63;53.59;97500.97;4999732;28;20061;-91
2022/04/23 19:00:24;;;;;;;2.25;1.15;;;;;;;17.61;53.61;97502.88;4960791;29;20054;-94
2022/04/23 19:06:16;;;;;;;2.17;1.30;;;;;;;17.61;53.57;97524.00;4960994;29;20074;-94
2022/04/23 19:09:14;;;;;;;3.40;1.58;;;;;;;17.62;53.54;97515.09;4960467;29;20031;-93
2022/04/23 19:11:42;;;;;;;2.15;1.08;;;;;;;17.62;53.53;97512.47;4960575;29;20099;-93
2022/04/23 19:29:24;;;;;;;2.33;1.17;;;;;;;17.61;53.13;97558.28;4922538;29;20064;-93
2022/04/23 19:32:06;;;;;;;2.53;1.20;;;;;;;17.62;53.34;97557.31;4922276;29;20025;-94
2022/04/23 19:34:58;;;;;;;1.95;1.08;;;;;;;17.63;53.26;97558.97;4922132;29;20029;-92